createdAt,value
2023-02-19T00:00:44.177Z,66.86
2023-02-19T00:03:12.445Z,66.60
2023-02-19T00:05:44.197Z,66.71
2023-02-19T00:08:14.836Z,66.39
2023-02-19T00:11:04.836Z,66.84
2023-02-19T00:13:39.447Z,66.41
2023-02-19T00:16:10.592Z,66.65
2023-02-19T00:18:42.327Z,66.35
2023-02-19T00:21:11.311Z,66.06
2023-02-19T00:23:39.428Z,66.24
2023-02-19T00:26:18.814Z,65.94
2023-02-19T00:28:50.675Z,66.10
2023-02-19T00:31:19.827Z,66.02
2023-02-19T00:33:49.384Z,66.03
2023-02-19T00:36:20.808Z,66.15
2023-02-19T00:38:48.919Z,65.87
2023-02-19T00:41:21.405Z,66.02
2023-02-19T00:43:50.963Z,65.75
2023-02-19T00:46:28.622Z,65.63
2023-02-19T00:48:56.899Z,66.07
2023-02-19T00:51:25.765Z,65.79
2023-02-19T00:53:53.857Z,66.37
2023-02-19T00:56:23.292Z,66.32
2023-02-19T00:58:51.564Z,66.20
2023-02-19T01:01:19.705Z,65.93
2023-02-19T01:03:49.582Z,65.86
2023-02-19T01:06:18.946Z,65.33
2023-02-19T01:08:47.652Z,65.19
2023-02-19T01:11:16.048Z,65.21
2023-02-19T01:13:46.776Z,64.72
2023-02-19T01:16:15.745Z,64.70
2023-02-19T01:18:46.088Z,65.06
2023-02-19T01:21:17.599Z,65.12
2023-02-19T01:23:46.801Z,64.74
2023-02-19T01:26:20.830Z,64.76
2023-02-19T01:28:52.650Z,64.84
2023-02-19T01:31:21.904Z,64.86
2023-02-19T01:33:54.739Z,64.92
2023-02-19T01:36:30.605Z,64.31
2023-02-19T01:39:01.562Z,64.46
2023-02-19T01:41:29.880Z,64.45
2023-02-19T01:44:27.751Z,64.69
2023-02-19T01:47:00.371Z,64.75
2023-02-19T01:49:31.358Z,64.83
2023-02-19T01:52:02.536Z,64.47
2023-02-19T01:54:33.513Z,64.56
2023-02-19T01:57:02.351Z,64.44
2023-02-19T01:59:30.390Z,63.93
2023-02-19T02:02:02.242Z,64.29
2023-02-19T02:04:32.355Z,64.28
2023-02-19T02:07:02.107Z,64.62
2023-02-19T02:09:48.942Z,64.59
2023-02-19T02:12:17.275Z,64.35
2023-02-19T02:14:46.612Z,64.64
2023-02-19T02:17:31.498Z,64.29
2023-02-19T02:20:24.188Z,64.55
2023-02-19T02:22:56.414Z,64.30
2023-02-19T02:25:48.006Z,64.26
2023-02-19T02:28:23.861Z,64.13
2023-02-19T02:30:56.319Z,64.23
2023-02-19T02:33:33.205Z,64.27
2023-02-19T02:36:04.777Z,64.35
2023-02-19T02:38:34.513Z,64.25
2023-02-19T02:41:03.911Z,64.26
2023-02-19T02:43:33.099Z,64.54
2023-02-19T02:46:04.786Z,64.60
2023-02-19T02:48:41.955Z,64.50
2023-02-19T02:51:17.077Z,64.86
2023-02-19T02:54:26.504Z,64.88
2023-02-19T02:56:55.748Z,64.39
2023-02-19T02:59:26.235Z,64.43
2023-02-19T03:02:14.533Z,64.44
2023-02-19T03:05:17.001Z,64.22
2023-02-19T03:07:48.861Z,64.77
2023-02-19T03:10:19.838Z,64.74
2023-02-19T03:13:06.735Z,64.48
2023-02-19T03:15:55.671Z,64.42
2023-02-19T03:18:43.530Z,64.43
2023-02-19T03:21:11.772Z,64.51
2023-02-19T03:24:01.226Z,64.47
2023-02-19T03:26:32.183Z,64.04
2023-02-19T03:29:17.081Z,64.32
2023-02-19T03:31:46.580Z,64.08
2023-02-19T03:34:18.545Z,64.15
2023-02-19T03:36:49.584Z,64.10
2023-02-19T03:39:22.647Z,63.77
2023-02-19T03:41:56.230Z,63.78
2023-02-19T03:44:34.947Z,63.66
2023-02-19T03:47:05.015Z,64.09
2023-02-19T03:49:41.794Z,63.83
2023-02-19T03:52:14.748Z,63.92
2023-02-19T03:54:49.823Z,63.86
2023-02-19T03:57:20.361Z,63.67
2023-02-19T03:59:51.015Z,63.95
2023-02-19T04:02:23.462Z,63.89
2023-02-19T04:04:56.405Z,63.84
2023-02-19T04:07:24.615Z,63.70
2023-02-19T04:09:52.546Z,63.67
2023-02-19T04:12:22.375Z,63.80
2023-02-19T04:14:53.061Z,63.76
2023-02-19T04:17:25.498Z,63.87
2023-02-19T04:19:55.728Z,63.91
2023-02-19T04:22:24.394Z,63.95
2023-02-19T04:24:53.218Z,64.10
2023-02-19T04:27:21.248Z,63.98
2023-02-19T04:29:49.454Z,63.74
2023-02-19T04:32:19.585Z,63.64
2023-02-19T04:34:49.835Z,63.56
2023-02-19T04:37:19.180Z,63.50
2023-02-19T04:39:48.583Z,63.78
2023-02-19T04:42:16.810Z,64.00
2023-02-19T04:44:47.552Z,63.57
2023-02-19T04:47:17.956Z,63.74
2023-02-19T04:49:46.813Z,63.64
2023-02-19T04:52:15.990Z,63.63
2023-02-19T04:54:48.073Z,63.20
2023-02-19T04:57:16.652Z,63.75
2023-02-19T04:59:44.665Z,63.53
2023-02-19T05:02:14.015Z,63.43
2023-02-19T05:04:45.900Z,63.81
2023-02-19T05:07:13.846Z,64.14
2023-02-19T05:09:43.335Z,63.90
2023-02-19T05:12:12.746Z,64.00
2023-02-19T05:14:40.736Z,63.65
2023-02-19T05:17:12.078Z,63.75
2023-02-19T05:19:40.094Z,63.77
2023-02-19T05:22:08.085Z,63.78
2023-02-19T05:24:36.027Z,63.78
2023-02-19T05:27:04.052Z,63.72
2023-02-19T05:29:33.492Z,63.73
2023-02-19T05:32:01.497Z,63.87
2023-02-19T05:34:29.481Z,64.04
2023-02-19T05:36:57.469Z,63.68
2023-02-19T05:39:25.466Z,64.12
2023-02-19T05:41:53.518Z,63.97
2023-02-19T05:44:26.375Z,63.89
2023-02-19T05:46:55.908Z,63.84
2023-02-19T05:49:24.020Z,63.95
2023-02-19T05:51:52.020Z,63.66
2023-02-19T05:54:20.162Z,63.64
2023-02-19T05:56:48.099Z,63.56
2023-02-19T05:59:17.111Z,63.67
2023-02-19T06:01:45.588Z,63.91
2023-02-19T06:04:15.551Z,63.75
2023-02-19T06:06:45.931Z,64.02
2023-02-19T06:09:14.029Z,64.16
2023-02-19T06:11:43.455Z,64.12
2023-02-19T06:14:12.605Z,64.05
2023-02-19T06:16:44.238Z,63.99
2023-02-19T06:19:14.587Z,63.72
2023-02-19T06:21:42.571Z,63.78
2023-02-19T06:24:10.935Z,64.11
2023-02-19T06:26:39.084Z,63.77
2023-02-19T06:29:07.184Z,63.83
2023-02-19T06:31:35.193Z,63.67
2023-02-19T06:34:06.217Z,63.83
2023-02-19T06:36:38.919Z,63.49
2023-02-19T06:39:06.961Z,63.42
2023-02-19T06:41:35.023Z,63.39
2023-02-19T06:44:03.260Z,63.39
2023-02-19T06:46:31.871Z,63.64
2023-02-19T06:49:01.493Z,63.64
2023-02-19T06:51:32.562Z,63.72
2023-02-19T06:54:08.376Z,63.94
2023-02-19T06:56:37.630Z,63.40
2023-02-19T06:59:06.299Z,63.57
2023-02-19T07:01:37.213Z,63.61
2023-02-19T07:04:05.807Z,63.65
2023-02-19T07:06:34.164Z,63.84
2023-02-19T07:09:02.234Z,63.64
2023-02-19T07:11:34.848Z,63.84
2023-02-19T07:14:03.740Z,64.08
2023-02-19T07:16:31.751Z,64.16
2023-02-19T07:19:00.183Z,63.88
2023-02-19T07:21:30.133Z,64.04
2023-02-19T07:24:12.373Z,64.10
2023-02-19T07:26:41.923Z,64.00
2023-02-19T07:29:10.800Z,63.76
2023-02-19T07:31:40.900Z,63.56
2023-02-19T07:34:08.952Z,63.54
2023-02-19T07:36:38.093Z,64.04
2023-02-19T07:39:09.938Z,63.67
2023-02-19T07:41:41.421Z,63.95
2023-02-19T07:44:13.530Z,63.65
2023-02-19T07:46:41.609Z,64.18
2023-02-19T07:49:09.911Z,64.11
2023-02-19T07:51:39.923Z,63.87
2023-02-19T07:54:08.527Z,63.93
2023-02-19T07:56:38.790Z,64.06
2023-02-19T07:59:14.417Z,63.91
2023-02-19T08:02:11.915Z,63.88
2023-02-19T08:04:40.331Z,63.60
2023-02-19T08:07:08.419Z,63.71
2023-02-19T08:09:41.770Z,63.70
2023-02-19T08:12:28.647Z,64.05
2023-02-19T08:14:58.828Z,63.78
2023-02-19T08:17:33.498Z,63.65
2023-02-19T08:20:02.811Z,63.42
2023-02-19T08:22:30.889Z,63.50
2023-02-19T08:25:03.764Z,63.64
2023-02-19T08:27:31.900Z,63.75
2023-02-19T08:30:00.243Z,64.03
2023-02-19T08:32:30.850Z,63.63
2023-02-19T08:35:01.295Z,63.74
2023-02-19T08:37:29.324Z,63.49
2023-02-19T08:39:57.294Z,63.54
2023-02-19T08:42:25.663Z,63.64
2023-02-19T08:44:53.860Z,63.83
2023-02-19T08:47:23.292Z,64.31
2023-02-19T08:49:56.067Z,64.45
2023-02-19T08:52:24.344Z,64.30
2023-02-19T08:54:52.375Z,64.62
2023-02-19T08:57:22.058Z,64.63
2023-02-19T08:59:50.257Z,64.91
2023-02-19T09:02:18.661Z,64.76
2023-02-19T09:04:47.340Z,64.72
2023-02-19T09:07:19.127Z,64.65
2023-02-19T09:09:48.815Z,64.68
2023-02-19T09:12:16.777Z,64.99
2023-02-19T09:14:44.769Z,64.49
2023-02-19T09:17:14.230Z,64.59
2023-02-19T09:19:45.622Z,64.41
2023-02-19T09:22:13.781Z,64.17
2023-02-19T09:24:51.301Z,64.27
2023-02-19T09:27:21.062Z,63.98
2023-02-19T09:29:51.933Z,64.39
2023-02-19T09:32:20.431Z,64.28
2023-02-19T09:34:48.496Z,64.09
2023-02-19T09:37:18.548Z,64.23
2023-02-19T09:39:48.273Z,63.98
2023-02-19T09:42:17.855Z,64.04
2023-02-19T09:44:48.994Z,64.22
2023-02-19T09:47:20.217Z,64.51
2023-02-19T09:49:52.287Z,63.86
2023-02-19T09:52:26.515Z,63.77
2023-02-19T09:54:59.277Z,63.36
2023-02-19T09:57:29.574Z,63.11
2023-02-19T10:00:02.005Z,62.13
2023-02-19T10:02:35.488Z,61.58
2023-02-19T10:05:07.629Z,61.36
2023-02-19T10:07:42.198Z,60.88
2023-02-19T10:10:41.554Z,59.49
2023-02-19T10:13:28.366Z,59.29
2023-02-19T10:16:00.618Z,58.78
2023-02-19T10:18:41.651Z,59.01
2023-02-19T10:21:19.929Z,58.76
2023-02-19T10:23:48.247Z,57.95
2023-02-19T10:26:26.407Z,57.74
2023-02-19T10:28:55.656Z,58.18
2023-02-19T10:31:34.811Z,58.29
2023-02-19T10:34:12.134Z,57.64
2023-02-19T10:36:49.295Z,57.18
2023-02-19T10:39:42.339Z,56.95
2023-02-19T10:42:19.242Z,57.12
2023-02-19T10:44:48.740Z,57.15
2023-02-19T10:47:18.576Z,57.22
2023-02-19T10:49:49.103Z,57.19
2023-02-19T10:52:19.215Z,56.96
2023-02-19T10:54:47.239Z,56.97
2023-02-19T10:57:30.077Z,56.89
2023-02-19T11:00:02.001Z,57.48
2023-02-19T11:02:30.884Z,57.27
2023-02-19T11:05:08.532Z,57.65
2023-02-19T11:07:37.244Z,57.50
2023-02-19T11:10:09.806Z,57.90
2023-02-19T11:12:39.717Z,57.95
2023-02-19T11:15:21.304Z,57.87
2023-02-19T11:17:55.980Z,57.92
2023-02-19T11:20:27.494Z,57.41
2023-02-19T11:22:58.685Z,57.35
2023-02-19T11:25:29.624Z,57.33
2023-02-19T11:28:38.050Z,56.99
2023-02-19T11:31:23.187Z,57.17
2023-02-19T11:34:00.164Z,56.98
2023-02-19T11:36:30.886Z,57.00
2023-02-19T11:39:00.149Z,56.54
2023-02-19T11:41:42.455Z,56.47
2023-02-19T11:44:25.632Z,55.96
2023-02-19T11:46:59.061Z,55.90
2023-02-19T11:49:31.438Z,55.95
2023-02-19T11:52:10.378Z,55.82
2023-02-19T11:54:51.094Z,55.55
2023-02-19T11:57:29.858Z,55.40
2023-02-19T12:00:14.136Z,55.84
2023-02-19T12:03:12.192Z,55.63
2023-02-19T12:05:53.209Z,55.67
2023-02-19T12:09:14.200Z,55.39
2023-02-19T12:12:02.920Z,55.79
2023-02-19T12:15:06.330Z,55.86
2023-02-19T12:17:45.735Z,56.08
2023-02-19T12:20:20.117Z,56.41
2023-02-19T12:22:52.201Z,56.24
2023-02-19T12:25:34.361Z,56.27
2023-02-19T12:28:31.449Z,56.38
2023-02-19T12:31:11.901Z,56.04
2023-02-19T12:34:02.197Z,55.87
2023-02-19T12:36:37.964Z,56.05
2023-02-19T12:39:08.806Z,56.07
2023-02-19T12:41:41.034Z,56.20
2023-02-19T12:44:20.801Z,56.21
2023-02-19T12:46:50.940Z,55.87
2023-02-19T12:49:35.912Z,55.72
2023-02-19T12:52:12.457Z,55.23
2023-02-19T12:54:42.455Z,55.00
2023-02-19T12:57:13.206Z,54.47
2023-02-19T12:59:45.929Z,54.55
2023-02-19T13:02:20.833Z,53.76
2023-02-19T13:04:59.184Z,53.62
2023-02-19T13:07:31.653Z,53.71
2023-02-19T13:10:06.794Z,53.45
2023-02-19T13:12:40.497Z,53.52
2023-02-19T13:15:14.750Z,52.85
2023-02-19T13:17:47.481Z,52.64
2023-02-19T13:20:21.613Z,52.67
2023-02-19T13:23:10.974Z,52.70
2023-02-19T13:25:45.948Z,52.85
2023-02-19T13:28:29.949Z,53.20
2023-02-19T13:31:15.568Z,53.16
2023-02-19T13:33:48.290Z,52.82
2023-02-19T13:36:20.604Z,52.93
2023-02-19T13:39:09.043Z,53.08
2023-02-19T13:41:45.470Z,52.88
2023-02-19T13:44:18.472Z,52.99
2023-02-19T13:46:50.303Z,53.27
2023-02-19T13:49:46.271Z,53.27
2023-02-19T13:52:43.886Z,53.37
2023-02-19T13:55:54.755Z,53.59
2023-02-19T13:58:55.961Z,53.58
2023-02-19T14:02:15.885Z,53.52
2023-02-19T14:04:54.288Z,53.78
2023-02-19T14:08:02.946Z,53.96
2023-02-19T14:11:08.591Z,53.83
2023-02-19T14:14:07.119Z,53.93
2023-02-19T14:16:51.207Z,54.09
2023-02-19T14:19:55.360Z,53.74
2023-02-19T14:22:52.805Z,54.05
2023-02-19T14:25:39.311Z,54.05
2023-02-19T14:28:36.976Z,54.24
2023-02-19T14:31:12.436Z,54.07
2023-02-19T14:33:45.707Z,53.94
2023-02-19T14:36:21.240Z,54.34
2023-02-19T14:38:52.401Z,54.30
2023-02-19T14:41:20.441Z,54.62
2023-02-19T14:43:51.712Z,55.15
2023-02-19T14:46:27.789Z,55.19
2023-02-19T14:48:57.277Z,55.61
2023-02-19T14:51:31.035Z,55.86
2023-02-19T14:54:00.463Z,55.85
2023-02-19T14:56:37.269Z,55.86
2023-02-19T14:59:24.889Z,55.71
2023-02-19T15:01:57.489Z,56.12
2023-02-19T15:04:27.585Z,55.98
2023-02-19T15:06:57.083Z,55.94
2023-02-19T15:09:38.301Z,55.74
2023-02-19T15:12:16.941Z,55.50
2023-02-19T15:14:56.448Z,55.41
2023-02-19T15:17:30.406Z,55.44
2023-02-19T15:19:58.662Z,55.32
2023-02-19T15:25:16.357Z,55.52
2023-02-19T15:27:45.123Z,55.49
2023-02-19T15:30:22.963Z,55.70
2023-02-19T15:32:54.930Z,55.80
2023-02-19T15:35:25.140Z,56.04
2023-02-19T15:37:53.437Z,56.10
2023-02-19T15:40:29.153Z,56.29
2023-02-19T15:43:05.901Z,56.57
2023-02-19T15:45:39.959Z,57.17
2023-02-19T15:48:14.299Z,57.45
2023-02-19T15:50:44.089Z,57.67
2023-02-19T15:53:49.894Z,58.26
2023-02-19T15:57:15.855Z,58.85
2023-02-19T15:59:45.754Z,59.56
2023-02-19T16:02:22.985Z,60.26
2023-02-19T16:05:33.763Z,60.81
2023-02-19T16:08:21.415Z,61.21
2023-02-19T16:10:57.922Z,61.39
2023-02-19T16:17:52.693Z,61.50
2023-02-19T16:21:54.956Z,61.36
2023-02-19T16:24:30.631Z,61.58
2023-02-19T16:27:31.882Z,61.78
2023-02-19T16:30:00.410Z,62.19
2023-02-19T16:32:28.779Z,62.10
2023-02-19T16:39:39.808Z,63.19
2023-02-19T16:46:51.292Z,63.61
2023-02-19T16:49:19.603Z,63.75
2023-02-19T16:51:54.825Z,64.14
2023-02-19T16:54:25.587Z,63.86
2023-02-19T16:57:25.772Z,63.81
2023-02-19T17:00:04.240Z,64.02
2023-02-19T17:02:34.412Z,64.64
2023-02-19T17:05:05.805Z,64.83
2023-02-19T17:07:34.946Z,65.08
2023-02-19T17:10:03.241Z,65.06
2023-02-19T17:18:03.621Z,65.34
2023-02-19T17:20:39.041Z,65.64
2023-02-19T17:23:08.476Z,65.65
2023-02-19T17:25:43.186Z,65.77
2023-02-19T17:28:35.731Z,65.77
2023-02-19T17:31:15.090Z,66.02
2023-02-19T17:33:59.432Z,66.02
2023-02-19T17:36:30.629Z,66.16
2023-02-19T17:39:01.724Z,65.86
2023-02-19T17:41:34.182Z,65.66
2023-02-19T17:44:18.912Z,65.72
2023-02-19T17:46:47.644Z,66.17
2023-02-19T17:49:17.994Z,65.77
2023-02-19T17:51:49.391Z,65.89
2023-02-19T17:54:17.474Z,65.84
2023-02-19T17:56:54.961Z,66.28
2023-02-19T17:59:47.310Z,65.90
2023-02-19T18:02:29.384Z,65.97
2023-02-19T18:04:59.736Z,66.10
2023-02-19T18:07:41.751Z,65.85
2023-02-19T18:10:13.723Z,65.70
2023-02-19T18:12:41.953Z,65.25
2023-02-19T18:15:19.442Z,65.40
2023-02-19T18:17:50.539Z,65.05
2023-02-19T18:20:25.819Z,65.11
2023-02-19T18:22:54.812Z,64.98
2023-02-19T18:25:23.332Z,64.79
2023-02-19T18:27:51.511Z,64.69
2023-02-19T18:30:24.761Z,64.38
2023-02-19T18:32:54.708Z,64.68
2023-02-19T18:35:26.123Z,64.23
2023-02-19T18:38:03.737Z,63.57
2023-02-19T18:40:33.747Z,63.81
2023-02-19T18:43:08.213Z,63.67
2023-02-19T18:45:38.031Z,63.46
2023-02-19T18:48:06.250Z,63.24
2023-02-19T18:50:37.936Z,63.08
2023-02-19T18:53:06.061Z,62.47
2023-02-19T18:55:37.158Z,62.40
2023-02-19T18:58:07.241Z,62.61
2023-02-19T19:00:37.928Z,62.56
2023-02-19T19:03:13.891Z,62.17
2023-02-19T19:05:45.661Z,62.29
2023-02-19T19:08:14.456Z,62.56
2023-02-19T19:10:45.918Z,62.56
2023-02-19T19:13:28.127Z,62.99
2023-02-19T19:15:56.232Z,62.68
2023-02-19T19:18:28.276Z,62.83
2023-02-19T19:21:02.055Z,63.04
2023-02-19T19:23:33.234Z,63.06
2023-02-19T19:26:01.515Z,63.23
2023-02-19T19:28:45.945Z,62.74
2023-02-19T19:31:17.859Z,62.54
2023-02-19T19:33:54.505Z,62.43
2023-02-19T19:36:26.311Z,62.18
2023-02-19T19:38:58.830Z,62.19
2023-02-19T19:41:35.490Z,61.89
2023-02-19T19:44:05.258Z,62.01
2023-02-19T19:46:33.369Z,61.85
2023-02-19T19:49:04.132Z,61.65
2023-02-19T19:51:32.872Z,61.61
2023-02-19T19:54:10.361Z,61.72
2023-02-19T19:56:41.825Z,61.51
2023-02-19T19:59:13.602Z,61.49
2023-02-19T20:01:49.766Z,61.55
2023-02-19T20:04:21.560Z,61.58
2023-02-19T20:06:49.662Z,61.53
2023-02-19T20:09:20.048Z,61.62
2023-02-19T20:11:49.183Z,61.42
2023-02-19T20:14:17.314Z,61.60
2023-02-19T20:16:51.471Z,61.29
2023-02-19T20:19:28.897Z,61.42
2023-02-19T20:21:57.271Z,61.24
2023-02-19T20:24:31.043Z,60.92
2023-02-19T20:27:00.122Z,61.08
2023-02-19T20:29:29.069Z,60.73
2023-02-19T20:31:59.565Z,60.96
2023-02-19T20:34:31.362Z,61.20
2023-02-19T20:36:59.606Z,60.93
2023-02-19T20:39:39.939Z,61.08
2023-02-19T20:42:08.734Z,60.92
2023-02-19T20:44:37.827Z,60.96
2023-02-19T20:47:06.209Z,60.48
2023-02-19T20:49:35.927Z,60.59
2023-02-19T20:52:06.713Z,60.88
2023-02-19T20:54:35.972Z,61.27
2023-02-19T20:57:12.419Z,61.09
2023-02-19T20:59:50.242Z,61.29
2023-02-19T21:02:29.254Z,61.64
2023-02-19T21:04:58.752Z,61.71
2023-02-19T21:07:34.302Z,61.79
2023-02-19T21:10:07.110Z,61.73
2023-02-19T21:12:36.648Z,61.99
2023-02-19T21:15:05.327Z,62.32
2023-02-19T21:17:38.573Z,62.25
2023-02-19T21:20:12.181Z,62.56
2023-02-19T21:22:42.695Z,62.46
2023-02-19T21:25:12.398Z,62.65
2023-02-19T21:27:40.378Z,62.63
2023-02-19T21:30:10.850Z,62.75
2023-02-19T21:32:38.897Z,63.40
2023-02-19T21:35:09.740Z,63.53
2023-02-19T21:37:42.999Z,63.25
2023-02-19T21:40:12.771Z,63.84
2023-02-19T21:42:40.727Z,63.79
2023-02-19T21:45:09.676Z,64.09
2023-02-19T21:47:40.381Z,64.37
2023-02-19T21:50:11.445Z,64.64
2023-02-19T21:52:47.636Z,64.90
2023-02-19T21:56:22.453Z,65.10
2023-02-19T21:58:50.451Z,65.23
2023-02-19T22:01:20.978Z,65.18
2023-02-19T22:03:53.510Z,65.22
2023-02-19T22:06:26.907Z,65.94
2023-02-19T22:08:56.348Z,66.12
2023-02-19T22:11:24.288Z,65.65
2023-02-19T22:13:55.492Z,65.94
2023-02-19T22:16:24.906Z,65.36
2023-02-19T22:18:53.618Z,65.55
2023-02-19T22:21:24.261Z,65.40
2023-02-19T22:23:53.960Z,65.41
2023-02-19T22:26:22.286Z,65.46
2023-02-19T22:28:50.237Z,65.51
2023-02-19T22:31:18.626Z,65.43
2023-02-19T22:33:46.999Z,65.40
2023-02-19T22:36:18.278Z,65.02
2023-02-19T22:38:50.063Z,64.99
2023-02-19T22:41:18.757Z,65.22
2023-02-19T22:43:46.825Z,65.19
2023-02-19T22:46:16.795Z,64.92
2023-02-19T22:48:49.736Z,64.73
2023-02-19T22:51:20.086Z,65.01
2023-02-19T22:53:55.061Z,64.81
2023-02-19T22:56:26.883Z,64.58
2023-02-19T22:58:55.921Z,64.82
2023-02-19T23:01:27.403Z,64.87
2023-02-19T23:03:58.730Z,64.73
2023-02-19T23:06:28.093Z,64.73
2023-02-19T23:08:58.327Z,64.54
2023-02-19T23:11:29.943Z,64.75
2023-02-19T23:13:58.339Z,64.58
2023-02-19T23:16:26.460Z,64.63
2023-02-19T23:18:54.763Z,64.42
2023-02-19T23:21:23.172Z,64.57
2023-02-19T23:23:51.189Z,64.56
2023-02-19T23:26:21.254Z,64.57
2023-02-19T23:28:49.311Z,64.57
2023-02-19T23:31:20.146Z,64.19
2023-02-19T23:33:48.325Z,64.36
2023-02-19T23:36:17.068Z,64.25
2023-02-19T23:38:46.407Z,64.11
2023-02-19T23:41:15.305Z,64.02
2023-02-19T23:43:44.779Z,64.11
2023-02-19T23:46:17.405Z,64.04
2023-02-19T23:48:46.066Z,64.07
2023-02-19T23:51:16.553Z,64.34
2023-02-19T23:53:46.940Z,64.15
2023-02-19T23:56:17.312Z,64.15
2023-02-19T23:58:46.728Z,63.71
